Time,TemperatureF,DewpointF,PressureIn,WindDirection,WindDirectionDegrees,WindSpeedMPH,WindSpeedGustMPH,Humidity,HourlyPrecipIn,Conditions,Clouds,dailyrainin,SoftwareType,DateUTC
2013-03-01 00:00:00,10.0,7.0,-100.00,North,-999,-999.0,-999.0,91,-99.99,,,-99.99,,2013-03-01 07:00:00,
2013-03-01 00:32:00,10.0,7.0,-100.00,North,-999,-999.0,-999.0,91,-99.99,,,-99.99,,2013-03-01 07:32:00,
2013-03-01 00:42:00,10.0,7.0,-100.00,North,-999,-999.0,-999.0,91,-99.99,,,-99.99,,2013-03-01 07:42:00,
2013-03-01 00:52:00,10.0,7.0,-100.00,North,-999,-999.0,-999.0,91,-99.99,,,-99.99,,2013-03-01 07:52:00,
2013-03-01 01:00:00,10.0,8.0,-100.00,North,-999,-999.0,-999.0,91,-99.99,,,-99.99,,2013-03-01 08:00:00,
2013-03-01 01:32:00,10.0,8.0,-100.00,North,-999,-999.0,-999.0,91,-99.99,,,-99.99,,2013-03-01 08:32:00,
2013-03-01 01:43:00,10.0,8.0,-100.00,North,-999,-999.0,-999.0,91,-99.99,,,-99.99,,2013-03-01 08:43:00,
2013-03-01 01:53:00,10.0,8.0,-100.00,North,-999,-999.0,-999.0,91,-99.99,,,-99.99,,2013-03-01 08:53:00,
2013-03-01 02:00:00,10.0,8.0,-100.00,North,-999,-999.0,-999.0,91,-99.99,,,-99.99,,2013-03-01 09:00:00,
2013-03-01 02:32:00,10.0,8.0,-100.00,North,-999,-999.0,-999.0,91,-99.99,,,-99.99,,2013-03-01 09:32:00,
2013-03-01 02:42:00,10.0,8.0,-100.00,North,-999,-999.0,-999.0,91,-99.99,,,-99.99,,2013-03-01 09:42:00,
2013-03-01 02:52:00,10.0,8.0,-100.00,North,-999,-999.0,-999.0,91,-99.99,,,-99.99,,2013-03-01 09:52:00,
2013-03-01 03:00:00,10.0,8.0,-100.00,North,-999,-999.0,-999.0,91,-99.99,,,-99.99,,2013-03-01 10:00:00,
2013-03-01 03:32:00,10.0,8.0,-100.00,North,-999,-999.0,-999.0,91,-99.99,,,-99.99,,2013-03-01 10:32:00,
2013-03-01 03:42:00,10.0,8.0,-100.00,North,-999,-999.0,-999.0,91,-99.99,,,-99.99,,2013-03-01 10:42:00,
2013-03-01 03:52:00,10.0,8.0,-100.00,North,-999,-999.0,-999.0,91,-99.99,,,-99.99,,2013-03-01 10:52:00,
2013-03-01 04:00:00,13.0,11.0,-100.00,North,-999,-999.0,-999.0,92,-99.99,,,-99.99,,2013-03-01 11:00:00,
2013-03-01 04:32:00,13.0,11.0,-100.00,North,-999,-999.0,-999.0,92,-99.99,,,-99.99,,2013-03-01 11:32:00,
2013-03-01 04:42:00,13.0,11.0,-100.00,North,-999,-999.0,-999.0,92,-99.99,,,-99.99,,2013-03-01 11:42:00,
2013-03-01 04:52:00,13.0,11.0,-100.00,North,-999,-999.0,-999.0,92,-99.99,,,-99.99,,2013-03-01 11:52:00,
2013-03-01 05:00:00,17.0,15.0,-100.00,North,-999,-999.0,-999.0,92,-99.99,,,-99.99,,2013-03-01 12:00:00,
2013-03-01 05:32:00,17.0,15.0,-100.00,North,-999,-999.0,-999.0,92,-99.99,,,-99.99,,2013-03-01 12:32:00,
2013-03-01 05:42:00,17.0,15.0,-100.00,North,-999,-999.0,-999.0,92,-99.99,,,-99.99,,2013-03-01 12:42:00,
2013-03-01 05:52:00,17.0,15.0,-100.00,North,-999,-999.0,-999.0,92,-99.99,,,-99.99,,2013-03-01 12:52:00,
2013-03-01 06:00:00,18.0,16.0,-100.00,North,-999,-999.0,-999.0,92,-99.99,,,-99.99,,2013-03-01 13:00:00,
2013-03-01 06:32:00,18.0,16.0,-100.00,North,-999,-999.0,-999.0,92,-99.99,,,-99.99,,2013-03-01 13:32:00,
2013-03-01 06:42:00,18.0,16.0,-100.00,North,-999,-999.0,-999.0,92,-99.99,,,-99.99,,2013-03-01 13:42:00,
2013-03-01 06:52:00,18.0,16.0,-100.00,North,-999,-999.0,-999.0,92,-99.99,,,-99.99,,2013-03-01 13:52:00,
2013-03-01 07:00:00,19.0,18.0,-100.00,North,-999,-999.0,-999.0,92,-99.99,,,-99.99,,2013-03-01 14:00:00,
2013-03-01 07:32:00,19.0,18.0,-100.00,North,-999,-999.0,-999.0,92,-99.99,,,-99.99,,2013-03-01 14:32:00,
2013-03-01 07:42:00,19.0,18.0,-100.00,North,-999,-999.0,-999.0,92,-99.99,,,-99.99,,2013-03-01 14:42:00,
2013-03-01 07:52:00,19.0,18.0,-100.00,North,-999,-999.0,-999.0,92,-99.99,,,-99.99,,2013-03-01 14:52:00,
2013-03-01 08:00:00,17.0,15.0,-100.00,North,-999,-999.0,-999.0,91,-99.99,,,-99.99,,2013-03-01 15:00:00,
2013-03-01 08:32:00,17.0,15.0,-100.00,North,-999,-999.0,-999.0,91,-99.99,,,-99.99,,2013-03-01 15:32:00,
2013-03-01 08:42:00,17.0,15.0,-100.00,North,-999,-999.0,-999.0,91,-99.99,,,-99.99,,2013-03-01 15:42:00,
2013-03-01 08:52:00,17.0,15.0,-100.00,North,-999,-999.0,-999.0,91,-99.99,,,-99.99,,2013-03-01 15:52:00,
2013-03-01 10:00:00,24.0,20.0,-100.00,North,-999,-999.0,-999.0,86,-99.99,,,-99.99,,2013-03-01 17:00:00,
2013-03-01 10:32:00,24.0,20.0,-100.00,North,-999,-999.0,-999.0,86,-99.99,,,-99.99,,2013-03-01 17:32:00,
2013-03-01 10:42:00,24.0,20.0,-100.00,North,-999,-999.0,-999.0,86,-99.99,,,-99.99,,2013-03-01 17:42:00,
2013-03-01 10:52:00,24.0,20.0,-100.00,North,-999,-999.0,-999.0,86,-99.99,,,-99.99,,2013-03-01 17:52:00,
2013-03-01 21:00:00,20.0,17.0,-100.00,North,-999,-999.0,-999.0,88,-99.99,,,-99.99,,2013-03-02 04:00:00,
2013-03-01 21:32:00,20.0,17.0,-100.00,North,-999,-999.0,-999.0,88,-99.99,,,-99.99,,2013-03-02 04:32:00,
2013-03-01 21:42:00,20.0,17.0,-100.00,North,-999,-999.0,-999.0,88,-99.99,,,-99.99,,2013-03-02 04:42:00,
2013-03-01 21:52:00,20.0,17.0,-100.00,North,-999,-999.0,-999.0,88,-99.99,,,-99.99,,2013-03-02 04:52:00,
2013-03-01 22:00:00,19.0,17.0,-100.00,North,-999,-999.0,-999.0,90,-99.99,,,-99.99,,2013-03-02 05:00:00,
2013-03-01 22:32:00,19.0,17.0,-100.00,North,-999,-999.0,-999.0,90,-99.99,,,-99.99,,2013-03-02 05:32:00,
2013-03-01 22:42:00,19.0,17.0,-100.00,North,-999,-999.0,-999.0,90,-99.99,,,-99.99,,2013-03-02 05:42:00,
2013-03-01 22:52:00,19.0,17.0,-100.00,North,-999,-999.0,-999.0,90,-99.99,,,-99.99,,2013-03-02 05:52:00,
2013-03-01 23:00:00,19.0,17.0,-100.00,North,-999,-999.0,-999.0,91,-99.99,,,-99.99,,2013-03-02 06:00:00,
2013-03-01 23:32:00,19.0,17.0,-100.00,North,-999,-999.0,-999.0,91,-99.99,,,-99.99,,2013-03-02 06:32:00,
2013-03-01 23:42:00,19.0,17.0,-100.00,North,-999,-999.0,-999.0,91,-99.99,,,-99.99,,2013-03-02 06:42:00,
2013-03-01 23:52:00,19.0,17.0,-100.00,North,-999,-999.0,-999.0,91,-99.99,,,-99.99,,2013-03-02 06:52:00,